OCN6NH EDDL-EDDM
Flight info
| Callsign | OCN6NH |
|---|---|
| Flight time | 0h 55m |
| Altitude | 33000 |
| Route | DODEN7Z DODEN Y853 BOMBI T104 HAREM/N0432F270 T104 ROKIL ROKIL1B |
| Aircraft | A320/M-SDE3FGHIRWY/LB1 |
Departure
| Time | 2026-05-05 19:38 |
|---|---|
| Airport | Düsseldorf Airport (EDDL) |
Arrival
| Time | 2026-05-05 20:33 |
|---|---|
| Airport | Munich Airport (EDDM) |
| Time | Latitude | Longitude | Altitude | Speed | Heading |
|---|---|---|---|---|---|
| 2026-05-05 19:17 | 51.28037 | 6.76364 | 137 ft | 0 kts | 197° |
| 2026-05-05 19:28 | 51.28039 | 6.76365 | 137 ft | 1 kts | 197° |
| 2026-05-05 19:29 | 51.28054 | 6.76375 | 110 ft | 3 kts | 220° |
| 2026-05-05 19:29 | 51.28066 | 6.76398 | 137 ft | 3 kts | 250° |
| 2026-05-05 19:29 | 51.28073 | 6.76427 | 137 ft | 3 kts | 225° |
| 2026-05-05 19:29 | 51.28074 | 6.76437 | 137 ft | 1 kts | 149° |
| 2026-05-05 19:30 | 51.28085 | 6.76426 | 137 ft | 3 kts | 145° |
| 2026-05-05 19:30 | 51.28101 | 6.76407 | 137 ft | 3 kts | 138° |
| 2026-05-05 19:30 | 51.28116 | 6.76384 | 137 ft | 3 kts | 130° |
| 2026-05-05 19:30 | 51.28129 | 6.76359 | 137 ft | 3 kts | 122° |
| 2026-05-05 19:31 | 51.28138 | 6.76333 | 137 ft | 2 kts | 115° |
| 2026-05-05 19:31 | 51.28143 | 6.76316 | 137 ft | 3 kts | 111° |
| 2026-05-05 19:31 | 51.28149 | 6.76286 | 137 ft | 3 kts | 94° |
| 2026-05-05 19:31 | 51.28147 | 6.76255 | 137 ft | 3 kts | 70° |
| 2026-05-05 19:32 | 51.28139 | 6.76226 | 137 ft | 3 kts | 51° |
| 2026-05-05 19:32 | 51.28126 | 6.76203 | 137 ft | 2 kts | 50° |
| 2026-05-05 19:32 | 51.28123 | 6.76198 | 137 ft | 0 kts | 52° |
| 2026-05-05 19:34 | 51.28124 | 6.76200 | 137 ft | 2 kts | 52° |
| 2026-05-05 19:35 | 51.28201 | 6.76182 | 137 ft | 12 kts | 256° |
| 2026-05-05 19:35 | 51.28161 | 6.76087 | 137 ft | 11 kts | 233° |
| 2026-05-05 19:35 | 51.28093 | 6.75944 | 137 ft | 17 kts | 232° |
| 2026-05-05 19:35 | 51.28029 | 6.75811 | 137 ft | 14 kts | 232° |
| 2026-05-05 19:36 | 51.27977 | 6.75704 | 137 ft | 11 kts | 232° |
| 2026-05-05 19:36 | 51.27945 | 6.75612 | 136 ft | 8 kts | 263° |
| 2026-05-05 19:36 | 51.27972 | 6.75546 | 136 ft | 8 kts | 324° |
| 2026-05-05 19:36 | 51.28033 | 6.75497 | 133 ft | 12 kts | 336° |
| 2026-05-05 19:37 | 51.28111 | 6.75518 | 132 ft | 13 kts | 45° |
| 2026-05-05 19:37 | 51.28186 | 6.75672 | 133 ft | 34 kts | 52° |
| 2026-05-05 19:37 | 51.28502 | 6.76325 | 133 ft | 111 kts | 53° |
| 2026-05-05 19:37 | 51.29083 | 6.77552 | 210 ft | 161 kts | 53° |
| 2026-05-05 19:38 | 51.29748 | 6.79035 | 917 ft | 168 kts | 51° |
| 2026-05-05 19:38 | 51.30454 | 6.80503 | 1715 ft | 173 kts | 50° |
| 2026-05-05 19:38 | 51.31250 | 6.82109 | 2034 ft | 192 kts | 52° |
| 2026-05-05 19:38 | 51.32104 | 6.83882 | 2350 ft | 211 kts | 53° |
| 2026-05-05 19:39 | 51.33048 | 6.85849 | 2691 ft | 235 kts | 53° |
| 2026-05-05 19:39 | 51.34055 | 6.88017 | 3284 ft | 248 kts | 55° |
| 2026-05-05 19:39 | 51.35003 | 6.90327 | 4058 ft | 254 kts | 66° |
| 2026-05-05 19:39 | 51.35288 | 6.93123 | 4822 ft | 261 kts | 96° |
| 2026-05-05 19:40 | 51.35008 | 6.96019 | 5682 ft | 266 kts | 99° |
| 2026-05-05 19:40 | 51.34698 | 6.98962 | 6547 ft | 271 kts | 100° |
| 2026-05-05 19:40 | 51.34384 | 7.01958 | 7372 ft | 276 kts | 99° |
| 2026-05-05 19:40 | 51.34069 | 7.05008 | 8206 ft | 280 kts | 99° |
| 2026-05-05 19:41 | 51.33752 | 7.08110 | 9031 ft | 284 kts | 99° |
| 2026-05-05 19:41 | 51.33432 | 7.11253 | 9839 ft | 289 kts | 99° |
| 2026-05-05 19:41 | 51.33002 | 7.14468 | 10266 ft | 307 kts | 108° |
| 2026-05-05 19:41 | 51.32126 | 7.17710 | 10483 ft | 330 kts | 120° |
| 2026-05-05 19:42 | 51.30781 | 7.20776 | 10721 ft | 349 kts | 131° |
| 2026-05-05 19:42 | 51.29051 | 7.23559 | 11304 ft | 356 kts | 136° |
| 2026-05-05 19:42 | 51.27265 | 7.26351 | 12014 ft | 360 kts | 135° |
| 2026-05-05 19:42 | 51.25474 | 7.29181 | 12765 ft | 363 kts | 135° |
| 2026-05-05 19:43 | 51.23684 | 7.32024 | 13491 ft | 366 kts | 135° |
| 2026-05-05 19:43 | 51.21866 | 7.34908 | 14140 ft | 369 kts | 136° |
| 2026-05-05 19:43 | 51.20043 | 7.37791 | 14762 ft | 371 kts | 136° |
| 2026-05-05 19:43 | 51.18197 | 7.40696 | 15377 ft | 374 kts | 136° |
| 2026-05-05 19:44 | 51.16340 | 7.43617 | 15990 ft | 377 kts | 136° |
| 2026-05-05 19:44 | 51.14457 | 7.46565 | 16578 ft | 380 kts | 136° |
| 2026-05-05 19:44 | 51.12552 | 7.49501 | 17154 ft | 383 kts | 137° |
| 2026-05-05 19:44 | 51.10617 | 7.52456 | 17735 ft | 386 kts | 137° |
| 2026-05-05 19:45 | 51.08690 | 7.55384 | 18247 ft | 389 kts | 137° |
| 2026-05-05 19:45 | 51.06715 | 7.58380 | 18741 ft | 392 kts | 137° |
| 2026-05-05 19:45 | 51.04744 | 7.61369 | 19239 ft | 395 kts | 137° |
| 2026-05-05 19:45 | 51.02746 | 7.64401 | 19743 ft | 397 kts | 137° |
| 2026-05-05 19:46 | 51.00761 | 7.67412 | 20235 ft | 399 kts | 137° |
| 2026-05-05 19:46 | 50.98738 | 7.70482 | 20734 ft | 401 kts | 137° |
| 2026-05-05 19:46 | 50.96664 | 7.73460 | 21203 ft | 402 kts | 143° |
| 2026-05-05 19:46 | 50.94327 | 7.75949 | 21667 ft | 404 kts | 149° |
| 2026-05-05 19:47 | 50.91958 | 7.78273 | 22133 ft | 406 kts | 148° |
| 2026-05-05 19:47 | 50.89549 | 7.80642 | 22603 ft | 409 kts | 148° |
| 2026-05-05 19:47 | 50.87121 | 7.83031 | 23059 ft | 411 kts | 148° |
| 2026-05-05 19:47 | 50.84691 | 7.85422 | 23490 ft | 413 kts | 148° |
| 2026-05-05 19:48 | 50.82243 | 7.87831 | 23854 ft | 415 kts | 148° |
| 2026-05-05 19:48 | 50.79785 | 7.90241 | 24232 ft | 417 kts | 148° |
| 2026-05-05 19:48 | 50.77319 | 7.92659 | 24605 ft | 419 kts | 148° |
| 2026-05-05 19:48 | 50.74834 | 7.95093 | 24971 ft | 420 kts | 148° |
| 2026-05-05 19:49 | 50.72451 | 7.97776 | 25323 ft | 422 kts | 139° |
| 2026-05-05 19:49 | 50.70997 | 7.99835 | 25542 ft | 424 kts | 138° |
| 2026-05-05 19:49 | 50.68066 | 8.04010 | 26031 ft | 426 kts | 138° |
| 2026-05-05 19:49 | 50.65892 | 8.07113 | 26388 ft | 427 kts | 138° |
| 2026-05-05 19:50 | 50.63685 | 8.10262 | 26743 ft | 428 kts | 138° |
| 2026-05-05 19:50 | 50.61467 | 8.13422 | 27089 ft | 430 kts | 138° |
| 2026-05-05 19:50 | 50.59248 | 8.16583 | 27406 ft | 431 kts | 138° |
| 2026-05-05 19:50 | 50.57016 | 8.19758 | 27738 ft | 433 kts | 138° |
| 2026-05-05 19:51 | 50.54776 | 8.22938 | 28070 ft | 434 kts | 138° |
| 2026-05-05 19:51 | 50.52525 | 8.26127 | 28401 ft | 435 kts | 138° |
| 2026-05-05 19:51 | 50.50280 | 8.29305 | 28712 ft | 436 kts | 138° |
| 2026-05-05 19:51 | 50.48050 | 8.32454 | 29090 ft | 436 kts | 138° |
| 2026-05-05 19:52 | 50.45800 | 8.35627 | 29550 ft | 434 kts | 137° |
| 2026-05-05 19:52 | 50.43559 | 8.38782 | 29980 ft | 432 kts | 138° |
| 2026-05-05 19:52 | 50.41325 | 8.41918 | 30372 ft | 430 kts | 138° |
| 2026-05-05 19:52 | 50.39102 | 8.45039 | 30744 ft | 429 kts | 138° |
| 2026-05-05 19:53 | 50.36881 | 8.48151 | 31110 ft | 427 kts | 138° |
| 2026-05-05 19:53 | 50.34723 | 8.51170 | 31412 ft | 428 kts | 138° |
| 2026-05-05 19:53 | 50.32441 | 8.54365 | 31545 ft | 432 kts | 138° |
| 2026-05-05 19:53 | 50.30196 | 8.57512 | 31729 ft | 434 kts | 138° |
| 2026-05-05 19:54 | 50.27946 | 8.60662 | 31997 ft | 434 kts | 138° |
| 2026-05-05 19:54 | 50.25693 | 8.63808 | 32309 ft | 433 kts | 138° |
| 2026-05-05 19:54 | 50.23444 | 8.66945 | 32639 ft | 432 kts | 139° |
| 2026-05-05 19:54 | 50.21201 | 8.70066 | 32789 ft | 432 kts | 139° |
| 2026-05-05 19:55 | 50.18987 | 8.73140 | 32811 ft | 432 kts | 139° |
| 2026-05-05 19:55 | 50.14494 | 8.79359 | 32812 ft | 432 kts | 139° |
| 2026-05-05 19:56 | 50.09997 | 8.85574 | 32810 ft | 432 kts | 139° |
| 2026-05-05 19:56 | 50.05495 | 8.91776 | 32815 ft | 432 kts | 139° |
| 2026-05-05 19:57 | 50.01748 | 8.96921 | 32814 ft | 433 kts | 139° |
| 2026-05-05 19:57 | 49.97231 | 9.03121 | 32810 ft | 433 kts | 139° |
| 2026-05-05 19:58 | 49.92714 | 9.09313 | 32809 ft | 433 kts | 139° |
| 2026-05-05 19:58 | 49.88178 | 9.15517 | 32811 ft | 434 kts | 139° |
| 2026-05-05 19:59 | 49.83638 | 9.21701 | 32807 ft | 435 kts | 139° |
| 2026-05-05 19:59 | 49.79083 | 9.27885 | 32804 ft | 435 kts | 139° |
| 2026-05-05 20:00 | 49.74521 | 9.34055 | 32803 ft | 436 kts | 139° |
| 2026-05-05 20:00 | 49.69947 | 9.40228 | 32806 ft | 436 kts | 139° |
| 2026-05-05 20:01 | 49.65399 | 9.46361 | 32808 ft | 437 kts | 140° |
| 2026-05-05 20:01 | 49.60802 | 9.52537 | 32813 ft | 438 kts | 140° |
| 2026-05-05 20:02 | 49.56210 | 9.58697 | 32812 ft | 438 kts | 140° |
| 2026-05-05 20:02 | 49.51607 | 9.64867 | 32814 ft | 438 kts | 140° |
| 2026-05-05 20:03 | 49.46994 | 9.71008 | 32811 ft | 439 kts | 140° |
| 2026-05-05 20:03 | 49.42367 | 9.77150 | 32812 ft | 440 kts | 140° |
| 2026-05-05 20:04 | 49.37808 | 9.83453 | 32276 ft | 443 kts | 134° |
| 2026-05-05 20:04 | 49.35753 | 9.86998 | 31931 ft | 445 kts | 133° |
| 2026-05-05 20:04 | 49.33713 | 9.90519 | 31572 ft | 446 kts | 133° |
| 2026-05-05 20:04 | 49.31646 | 9.94076 | 31206 ft | 448 kts | 134° |
| 2026-05-05 20:05 | 49.29574 | 9.97642 | 30854 ft | 449 kts | 134° |
| 2026-05-05 20:05 | 49.27490 | 10.01221 | 30507 ft | 450 kts | 134° |
| 2026-05-05 20:05 | 49.25399 | 10.04804 | 30052 ft | 451 kts | 134° |
| 2026-05-05 20:05 | 49.23305 | 10.08385 | 29523 ft | 453 kts | 134° |
| 2026-05-05 20:06 | 49.21198 | 10.11976 | 28961 ft | 454 kts | 134° |
| 2026-05-05 20:06 | 49.19091 | 10.15573 | 28410 ft | 458 kts | 134° |
| 2026-05-05 20:06 | 49.16954 | 10.19231 | 27818 ft | 462 kts | 134° |
| 2026-05-05 20:06 | 49.14807 | 10.22904 | 27230 ft | 465 kts | 134° |
| 2026-05-05 20:07 | 49.12633 | 10.26582 | 26660 ft | 467 kts | 135° |
| 2026-05-05 20:07 | 49.10413 | 10.30220 | 26094 ft | 468 kts | 135° |
| 2026-05-05 20:07 | 49.08165 | 10.33818 | 25541 ft | 470 kts | 136° |
| 2026-05-05 20:07 | 49.05902 | 10.37400 | 24992 ft | 467 kts | 136° |
| 2026-05-05 20:08 | 49.03682 | 10.40909 | 24372 ft | 464 kts | 136° |
| 2026-05-05 20:08 | 49.01456 | 10.44438 | 23761 ft | 461 kts | 135° |
| 2026-05-05 20:08 | 48.99244 | 10.47958 | 23105 ft | 458 kts | 135° |
| 2026-05-05 20:08 | 48.97052 | 10.51453 | 22391 ft | 456 kts | 135° |
| 2026-05-05 20:09 | 48.94861 | 10.54949 | 21699 ft | 455 kts | 135° |
| 2026-05-05 20:09 | 48.92679 | 10.58428 | 21019 ft | 452 kts | 135° |
| 2026-05-05 20:09 | 48.90520 | 10.61869 | 20357 ft | 448 kts | 135° |
| 2026-05-05 20:09 | 48.88371 | 10.65286 | 19710 ft | 445 kts | 135° |
| 2026-05-05 20:10 | 48.86241 | 10.68667 | 19132 ft | 438 kts | 135° |
| 2026-05-05 20:10 | 48.84149 | 10.71981 | 18598 ft | 430 kts | 135° |
| 2026-05-05 20:10 | 48.82095 | 10.75230 | 18069 ft | 423 kts | 135° |
| 2026-05-05 20:10 | 48.80070 | 10.78425 | 17474 ft | 417 kts | 136° |
| 2026-05-05 20:11 | 48.78070 | 10.81565 | 16883 ft | 411 kts | 136° |
| 2026-05-05 20:11 | 48.76098 | 10.84656 | 16306 ft | 406 kts | 136° |
| 2026-05-05 20:11 | 48.74145 | 10.87717 | 15751 ft | 401 kts | 136° |
| 2026-05-05 20:11 | 48.72240 | 10.90701 | 15197 ft | 397 kts | 136° |
| 2026-05-05 20:12 | 48.70326 | 10.93700 | 14656 ft | 394 kts | 136° |
| 2026-05-05 20:12 | 48.68429 | 10.96668 | 14120 ft | 391 kts | 136° |
| 2026-05-05 20:12 | 48.66543 | 10.99607 | 13593 ft | 388 kts | 137° |
| 2026-05-05 20:12 | 48.64669 | 11.02520 | 13030 ft | 384 kts | 137° |
| 2026-05-05 20:13 | 48.62830 | 11.05373 | 12817 ft | 372 kts | 137° |
| 2026-05-05 20:13 | 48.61037 | 11.08149 | 12833 ft | 368 kts | 137° |
| 2026-05-05 20:13 | 48.59254 | 11.10906 | 12828 ft | 367 kts | 137° |
| 2026-05-05 20:13 | 48.57374 | 11.13491 | 12847 ft | 363 kts | 146° |
| 2026-05-05 20:14 | 48.55315 | 11.15687 | 12835 ft | 360 kts | 144° |
| 2026-05-05 20:14 | 48.53633 | 11.18439 | 12846 ft | 363 kts | 126° |
| 2026-05-05 20:14 | 48.52557 | 11.21944 | 12731 ft | 374 kts | 108° |
| 2026-05-05 20:14 | 48.52277 | 11.25837 | 12260 ft | 376 kts | 87° |
| 2026-05-05 20:15 | 48.52745 | 11.29713 | 11862 ft | 376 kts | 78° |
| 2026-05-05 20:15 | 48.53312 | 11.33568 | 11461 ft | 375 kts | 78° |
| 2026-05-05 20:15 | 48.53864 | 11.37355 | 11040 ft | 374 kts | 78° |
| 2026-05-05 20:15 | 48.54417 | 11.41179 | 10683 ft | 372 kts | 79° |
| 2026-05-05 20:16 | 48.54959 | 11.44991 | 10370 ft | 371 kts | 79° |
| 2026-05-05 20:16 | 48.55492 | 11.48785 | 10053 ft | 364 kts | 79° |
| 2026-05-05 20:16 | 48.56004 | 11.52477 | 9743 ft | 356 kts | 81° |
| 2026-05-05 20:16 | 48.56353 | 11.56142 | 9401 ft | 349 kts | 84° |
| 2026-05-05 20:17 | 48.56638 | 11.59754 | 9058 ft | 344 kts | 84° |
| 2026-05-05 20:17 | 48.56912 | 11.63333 | 8680 ft | 340 kts | 84° |
| 2026-05-05 20:17 | 48.57182 | 11.66853 | 8318 ft | 336 kts | 84° |
| 2026-05-05 20:17 | 48.57440 | 11.70329 | 7964 ft | 332 kts | 84° |
| 2026-05-05 20:18 | 48.57692 | 11.73776 | 7610 ft | 327 kts | 84° |
| 2026-05-05 20:18 | 48.57936 | 11.77174 | 7259 ft | 323 kts | 84° |
| 2026-05-05 20:18 | 48.58171 | 11.80514 | 6915 ft | 316 kts | 84° |
| 2026-05-05 20:18 | 48.58398 | 11.83774 | 6556 ft | 308 kts | 84° |
| 2026-05-05 20:19 | 48.58612 | 11.86958 | 6156 ft | 301 kts | 84° |
| 2026-05-05 20:19 | 48.58816 | 11.90079 | 5756 ft | 295 kts | 84° |
| 2026-05-05 20:19 | 48.59008 | 11.93127 | 5351 ft | 288 kts | 84° |
| 2026-05-05 20:19 | 48.59186 | 11.96073 | 5030 ft | 281 kts | 84° |
| 2026-05-05 20:20 | 48.59360 | 11.99001 | 4978 ft | 279 kts | 85° |
| 2026-05-05 20:20 | 48.59534 | 12.01920 | 4983 ft | 280 kts | 84° |
| 2026-05-05 20:20 | 48.59705 | 12.04846 | 4982 ft | 280 kts | 84° |
| 2026-05-05 20:20 | 48.59875 | 12.07778 | 4983 ft | 280 kts | 84° |
| 2026-05-05 20:21 | 48.60049 | 12.10741 | 4986 ft | 294 kts | 84° |
| 2026-05-05 20:21 | 48.60234 | 12.13887 | 4977 ft | 304 kts | 85° |
| 2026-05-05 20:21 | 48.60419 | 12.17081 | 4974 ft | 306 kts | 85° |
| 2026-05-05 20:21 | 48.60604 | 12.20288 | 4973 ft | 306 kts | 84° |
| 2026-05-05 20:22 | 48.60786 | 12.23437 | 4964 ft | 293 kts | 85° |
| 2026-05-05 20:22 | 48.60677 | 12.26474 | 4969 ft | 289 kts | 107° |
| 2026-05-05 20:22 | 48.59748 | 12.29082 | 4967 ft | 275 kts | 136° |
| 2026-05-05 20:22 | 48.58239 | 12.30634 | 4967 ft | 253 kts | 165° |
| 2026-05-05 20:23 | 48.56588 | 12.31250 | 4976 ft | 240 kts | 174° |
| 2026-05-05 20:23 | 48.54957 | 12.31699 | 4976 ft | 238 kts | 174° |
| 2026-05-05 20:23 | 48.53344 | 12.32120 | 4973 ft | 237 kts | 175° |
| 2026-05-05 20:23 | 48.51718 | 12.32515 | 4971 ft | 236 kts | 178° |
| 2026-05-05 20:24 | 48.50088 | 12.32765 | 4973 ft | 235 kts | 179° |
| 2026-05-05 20:24 | 48.48454 | 12.32980 | 4972 ft | 236 kts | 179° |
| 2026-05-05 20:24 | 48.46795 | 12.33191 | 4975 ft | 236 kts | 180° |
| 2026-05-05 20:24 | 48.45178 | 12.33392 | 4980 ft | 238 kts | 181° |
| 2026-05-05 20:25 | 48.43549 | 12.33169 | 4973 ft | 234 kts | 200° |
| 2026-05-05 20:25 | 48.42090 | 12.32167 | 4977 ft | 229 kts | 219° |
| 2026-05-05 20:25 | 48.40949 | 12.30538 | 4982 ft | 226 kts | 237° |
| 2026-05-05 20:25 | 48.40222 | 12.28452 | 4986 ft | 226 kts | 254° |
| 2026-05-05 20:26 | 48.39945 | 12.26121 | 4989 ft | 226 kts | 264° |
| 2026-05-05 20:26 | 48.39778 | 12.23763 | 4986 ft | 227 kts | 264° |
| 2026-05-05 20:26 | 48.39610 | 12.21413 | 4988 ft | 223 kts | 265° |
| 2026-05-05 20:26 | 48.39446 | 12.19167 | 4982 ft | 209 kts | 264° |
| 2026-05-05 20:27 | 48.39293 | 12.17071 | 5007 ft | 193 kts | 265° |
| 2026-05-05 20:27 | 48.39155 | 12.15189 | 4994 ft | 174 kts | 264° |
| 2026-05-05 20:27 | 48.39024 | 12.13403 | 4999 ft | 173 kts | 264° |
| 2026-05-05 20:27 | 48.38891 | 12.11594 | 4998 ft | 167 kts | 265° |
| 2026-05-05 20:28 | 48.38772 | 12.09966 | 4982 ft | 157 kts | 264° |
| 2026-05-05 20:28 | 48.38652 | 12.08340 | 4863 ft | 156 kts | 264° |
| 2026-05-05 20:28 | 48.38532 | 12.06721 | 4678 ft | 154 kts | 264° |
| 2026-05-05 20:28 | 48.38414 | 12.05123 | 4505 ft | 153 kts | 263° |
| 2026-05-05 20:29 | 48.38296 | 12.03524 | 4294 ft | 154 kts | 264° |
| 2026-05-05 20:29 | 48.38178 | 12.01945 | 4076 ft | 149 kts | 264° |
| 2026-05-05 20:29 | 48.38064 | 12.00409 | 3876 ft | 146 kts | 264° |
| 2026-05-05 20:29 | 48.37951 | 11.98890 | 3673 ft | 145 kts | 265° |
| 2026-05-05 20:30 | 48.37838 | 11.97384 | 3489 ft | 144 kts | 265° |
| 2026-05-05 20:30 | 48.37726 | 11.95884 | 3311 ft | 144 kts | 265° |
| 2026-05-05 20:30 | 48.37614 | 11.94388 | 3120 ft | 143 kts | 264° |
| 2026-05-05 20:30 | 48.37503 | 11.92917 | 2934 ft | 143 kts | 264° |
| 2026-05-05 20:31 | 48.37391 | 11.91431 | 2738 ft | 143 kts | 264° |
| 2026-05-05 20:31 | 48.37279 | 11.89931 | 2544 ft | 142 kts | 264° |
| 2026-05-05 20:31 | 48.37167 | 11.88452 | 2345 ft | 143 kts | 264° |
| 2026-05-05 20:31 | 48.37054 | 11.86962 | 2142 ft | 143 kts | 263° |
| 2026-05-05 20:32 | 48.36943 | 11.85493 | 1937 ft | 145 kts | 264° |
| 2026-05-05 20:32 | 48.36832 | 11.83995 | 1756 ft | 143 kts | 263° |
| 2026-05-05 20:32 | 48.36722 | 11.82512 | 1576 ft | 142 kts | 263° |
| 2026-05-05 20:32 | 48.36607 | 11.81063 | 1488 ft | 131 kts | 264° |
| 2026-05-05 20:33 | 48.36519 | 11.79891 | 1480 ft | 89 kts | 263° |
| 2026-05-05 20:33 | 48.36461 | 11.79171 | 1481 ft | 54 kts | 259° |
| 2026-05-05 20:33 | 48.36351 | 11.78804 | 1471 ft | 32 kts | 236° |
| 2026-05-05 20:33 | 48.36270 | 11.78641 | 1475 ft | 0 kts | 230° |
| 2026-05-05 20:34 | 48.36235 | 11.78578 | 1477 ft | 11 kts | 231° |
| 2026-05-05 20:34 | 48.36175 | 11.78492 | 1482 ft | 13 kts | 199° |
| 2026-05-05 20:34 | 48.36074 | 11.78487 | 1485 ft | 19 kts | 173° |
| 2026-05-05 20:34 | 48.36029 | 11.78577 | 1485 ft | 10 kts | 75° |
| 2026-05-05 20:35 | 48.36047 | 11.78723 | 1485 ft | 15 kts | 83° |
| 2026-05-05 20:35 | 48.36059 | 11.78867 | 1485 ft | 13 kts | 83° |
| 2026-05-05 20:35 | 48.36072 | 11.79033 | 1485 ft | 20 kts | 83° |
| 2026-05-05 20:35 | 48.36084 | 11.79199 | 1485 ft | 14 kts | 83° |
| 2026-05-05 20:36 | 48.36062 | 11.79316 | 1482 ft | 11 kts | 164° |
| 2026-05-05 20:36 | 48.35995 | 11.79333 | 1483 ft | 9 kts | 174° |
| 2026-05-05 20:36 | 48.35941 | 11.79346 | 1485 ft | 7 kts | 161° |
| 2026-05-05 20:36 | 48.35903 | 11.79360 | 1482 ft | 6 kts | 223° |
| 2026-05-05 20:37 | 48.35896 | 11.79296 | 1485 ft | 7 kts | 265° |
| 2026-05-05 20:37 | 48.35893 | 11.79249 | 1485 ft | 7 kts | 263° |
| 2026-05-05 20:37 | 48.35890 | 11.79207 | 1472 ft | 0 kts | 263° |
| 2026-05-05 20:37 | 48.35890 | 11.79206 | 1485 ft | 0 kts | 263° |
| 2026-05-05 20:38 | 48.35890 | 11.79205 | 1485 ft | 0 kts | 263° |